Loup City, Nebraska
Current Conditions -  °F | °C
As of 9:53 AM on Thursday 30 Oct 2014 (Local Time) from KODX Reporting Station
Clear Clear  
Wind Chill: 44°   Ceiling: Unl
Heat Index: 49°   Visibility: 10mi
Dew Point: 36°   Wind: 14mph
Humidity: 61%   Direction: 320°NW
Pressure: 30.16"   Gusts: 22mph
Location:  41.28°N, 98.97°W
Report Text: KODX 301453Z AUTO 32012G19KT 10SM CLR 09/02 A3016 RMK AO2 SLP224 T00940022 53017
Loading
Personal Weather Stations






























Interactive Weather Map
Tropical Storm Tracking
New forecast layout! Learn more

10-Day Weather Forecast

Advertisements
Track Severe Weather on mobile